Time;durP1;ratioP1;P1;durP2;ratioP2;P2;SDS_P1;SDS_P2;PMS_P1;PMS_P2;Temp;Humidity;BMP_temperature;BMP_pressure;BME280_temperature;BME280_humidity;BME280_pressure;Samples;Min_cycle;Max_cycle;Signal;HPM_P1;HPM_P2
2023/06/25 00:00:44;;;;;;;0.50;0.20;;;;;;;19.01;85.75;100622.31;5033670;28;20857;-50
2023/06/25 00:03:12;;;;;;;0.50;0.20;;;;;;;19.26;84.55;100619.06;5034501;28;20495;-50
2023/06/25 00:05:39;;;;;;;0.50;0.20;;;;;;;19.35;84.66;100613.13;5033815;28;20586;-51
2023/06/25 00:08:05;;;;;;;0.50;0.20;;;;;;;18.86;85.66;100620.53;5034394;28;20506;-51
2023/06/25 00:10:32;;;;;;;0.50;0.20;;;;;;;18.77;87.37;100618.34;5034257;28;20534;-50
2023/06/25 00:12:58;;;;;;;0.50;0.20;;;;;;;18.99;86.17;100615.28;5034741;28;20467;-51
2023/06/25 00:15:25;;;;;;;0.50;0.20;;;;;;;18.98;86.03;100611.72;5034336;28;20502;-50
2023/06/25 00:17:51;;;;;;;0.50;0.20;;;;;;;18.92;86.44;100612.09;5034931;28;20986;-50
2023/06/25 00:20:18;;;;;;;0.50;0.20;;;;;;;18.72;86.49;100615.06;5034568;28;20487;-51
2023/06/25 00:22:45;;;;;;;0.50;0.20;;;;;;;18.87;86.40;100612.34;5033948;28;20495;-50
2023/06/25 00:25:31;;;;;;;1.27;0.77;;;;;;;18.76;86.20;100603.16;5034135;28;20513;-51
2023/06/25 00:28:00;;;;;;;0.50;0.30;;;;;;;18.75;86.30;100602.28;5034078;28;20471;-50
2023/06/25 00:30:26;;;;;;;0.50;0.20;;;;;;;18.72;86.93;100596.19;5033835;28;20499;-51
2023/06/25 00:32:56;;;;;;;0.50;0.30;;;;;;;18.78;86.24;100604.81;5034087;28;20482;-51
2023/06/25 00:35:26;;;;;;;0.50;0.20;;;;;;;18.81;86.01;100603.75;5033961;28;20948;-51
2023/06/25 00:38:01;;;;;;;0.50;0.20;;;;;;;18.55;87.16;100598.00;5034087;28;20463;-51
2023/06/25 00:40:28;;;;;;;0.50;0.20;;;;;;;18.73;86.59;100597.94;5030223;28;20479;-51
2023/06/25 00:42:58;;;;;;;0.50;0.27;;;;;;;18.51;86.69;100591.06;5033520;28;20499;-51
2023/06/25 00:45:26;;;;;;;0.50;0.20;;;;;;;18.43;87.71;100601.38;5033909;28;20459;-51
2023/06/25 00:47:53;;;;;;;0.50;0.20;;;;;;;18.31;87.80;100591.31;5033418;28;20987;-51
2023/06/25 00:50:21;;;;;;;0.50;0.20;;;;;;;18.35;87.36;100598.25;5033870;28;20483;-51
2023/06/25 00:52:49;;;;;;;0.50;0.50;;;;;;;18.04;89.27;100593.69;5033468;28;20515;-51
2023/06/25 00:55:16;;;;;;;0.50;0.20;;;;;;;18.12;89.10;100590.59;5032673;28;20979;-51
2023/06/25 00:57:42;;;;;;;0.60;0.30;;;;;;;17.93;89.89;100591.56;5033469;28;20843;-50
2023/06/25 01:00:13;;;;;;;0.50;0.20;;;;;;;18.11;88.88;100592.41;5033596;28;20514;-50
2023/06/25 01:02:50;;;;;;;0.73;0.73;;;;;;;17.94;89.76;100592.44;5033127;28;20610;-51
2023/06/25 01:05:28;;;;;;;0.50;0.20;;;;;;;17.84;90.09;100589.41;5033744;28;20493;-50
2023/06/25 01:07:59;;;;;;;0.50;0.20;;;;;;;18.06;88.84;100592.66;5032978;28;20572;-51
2023/06/25 01:10:25;;;;;;;0.50;0.30;;;;;;;17.80;90.21;100584.25;5033226;28;20589;-50
2023/06/25 01:12:54;;;;;;;0.50;0.20;;;;;;;17.74;90.29;100586.34;5032884;28;20475;-50
2023/06/25 01:15:20;;;;;;;0.50;0.20;;;;;;;17.92;89.46;100586.28;5032900;28;20460;-51
2023/06/25 01:17:48;;;;;;;0.50;0.20;;;;;;;18.03;89.42;100581.19;5029569;28;20467;-51
2023/06/25 01:20:16;;;;;;;0.50;0.20;;;;;;;17.92;89.51;100588.97;5033324;28;20491;-51
2023/06/25 01:22:43;;;;;;;0.50;0.20;;;;;;;17.70;90.17;100594.66;5032660;28;20502;-50
2023/06/25 01:25:10;;;;;;;0.50;0.20;;;;;;;17.83;90.08;100584.97;5033107;28;20538;-51
2023/06/25 01:27:37;;;;;;;0.50;0.20;;;;;;;17.75;89.91;100593.44;5032639;28;20463;-50
2023/06/25 01:30:08;;;;;;;0.50;0.20;;;;;;;17.70;90.10;100581.22;5032781;28;21048;-51
2023/06/25 01:32:35;;;;;;;0.50;0.20;;;;;;;17.61;90.20;100584.34;5032728;28;20452;-50
2023/06/25 01:35:01;;;;;;;0.50;0.20;;;;;;;17.59;90.08;100575.50;5032824;28;20498;-50
2023/06/25 01:37:28;;;;;;;0.50;0.20;;;;;;;17.82;89.54;100576.97;5032707;28;20467;-51
2023/06/25 01:39:55;;;;;;;0.50;0.20;;;;;;;17.56;90.97;100572.97;5032349;28;20903;-50
2023/06/25 01:42:22;;;;;;;0.50;0.20;;;;;;;17.58;90.88;100574.63;5028274;28;20585;-50
2023/06/25 01:44:48;;;;;;;0.50;0.20;;;;;;;17.61;90.62;100581.66;5024915;28;20978;-50
2023/06/25 01:47:15;;;;;;;0.50;0.20;;;;;;;17.66;91.07;100577.75;5038882;28;20467;-50
2023/06/25 01:49:41;;;;;;;1.93;1.90;;;;;;;17.44;91.26;100575.34;5034320;28;20522;-51
2023/06/25 01:52:08;;;;;;;0.50;0.20;;;;;;;17.37;91.89;100565.84;5032754;28;20467;-51
2023/06/25 01:54:34;;;;;;;0.50;0.20;;;;;;;17.20;92.30;100573.06;5032047;28;20475;-51
2023/06/25 01:57:02;;;;;;;0.50;0.20;;;;;;;17.12;93.13;100573.44;5032571;28;20828;-50
2023/06/25 01:59:28;;;;;;;0.60;0.50;;;;;;;17.40;92.39;100568.38;5032618;28;20487;-50
2023/06/25 02:01:55;;;;;;;1.33;1.33;;;;;;;17.35;90.99;100577.63;5032328;28;20475;-50
2023/06/25 02:04:21;;;;;;;0.50;0.20;;;;;;;16.98;92.98;100574.13;5032450;28;20470;-50
2023/06/25 02:06:48;;;;;;;0.50;0.20;;;;;;;17.09;92.80;100566.41;5032229;28;20514;-50
2023/06/25 02:09:14;;;;;;;0.50;0.20;;;;;;;17.09;92.83;100570.91;5031928;28;20557;-51
2023/06/25 02:11:41;;;;;;;0.50;0.20;;;;;;;16.83;93.38;100566.84;5032329;28;20463;-51
2023/06/25 02:14:07;;;;;;;0.50;0.20;;;;;;;16.91;93.18;100564.66;5032518;28;20471;-50
2023/06/25 02:16:34;;;;;;;0.50;0.20;;;;;;;16.76;93.79;100568.13;5032158;28;20495;-50
2023/06/25 02:19:00;;;;;;;0.50;0.20;;;;;;;16.81;94.10;100560.69;5032117;28;20475;-50
2023/06/25 02:21:29;;;;;;;0.50;0.30;;;;;;;17.00;93.20;100564.22;5032228;28;20463;-52
2023/06/25 02:23:55;;;;;;;5.27;4.83;;;;;;;17.13;92.12;100559.06;5031365;28;20501;-50
2023/06/25 02:26:22;;;;;;;0.50;0.30;;;;;;;16.93;93.05;100562.78;5032203;28;20529;-50
2023/06/25 02:28:48;;;;;;;0.50;0.20;;;;;;;16.98;93.09;100567.91;5032026;28;20499;-50
2023/06/25 02:31:15;;;;;;;0.50;0.20;;;;;;;16.79;92.70;100571.53;5031925;28;20487;-50
2023/06/25 02:33:41;;;;;;;0.50;0.20;;;;;;;16.75;93.33;100561.88;5031911;28;20463;-50
2023/06/25 02:36:08;;;;;;;0.50;0.20;;;;;;;16.52;94.89;100564.78;5031803;28;20482;-50
2023/06/25 02:38:35;;;;;;;0.50;0.20;;;;;;;16.41;94.43;100564.44;5031790;28;20463;-50
2023/06/25 02:41:01;;;;;;;0.50;0.20;;;;;;;16.51;94.09;100566.59;5032202;28;21062;-50
2023/06/25 02:43:28;;;;;;;1.23;1.23;;;;;;;16.62;93.30;100560.72;5031803;28;20498;-51
2023/06/25 02:45:54;;;;;;;0.50;0.20;;;;;;;16.33;94.08;100564.81;5031819;28;20490;-50
2023/06/25 02:48:21;;;;;;;0.50;0.30;;;;;;;16.57;93.57;100568.09;5031818;28;20459;-50
2023/06/25 02:50:47;;;;;;;0.50;0.20;;;;;;;16.28;93.90;100570.38;5031528;28;20509;-49
2023/06/25 02:53:13;;;;;;;0.50;0.20;;;;;;;16.12;95.67;100565.81;5031850;28;20831;-50
2023/06/25 02:55:40;;;;;;;0.50;0.20;;;;;;;16.23;94.69;100571.56;5031661;28;20471;-51
2023/06/25 02:58:07;;;;;;;0.50;0.20;;;;;;;16.35;94.70;100568.28;5031504;28;20978;-50
2023/06/25 03:00:33;;;;;;;0.50;0.30;;;;;;;16.32;94.46;100560.41;5031641;28;20488;-50
2023/06/25 03:03:00;;;;;;;0.50;0.20;;;;;;;16.13;94.75;100563.06;5031609;28;20531;-51
2023/06/25 03:05:26;;;;;;;0.50;0.20;;;;;;;16.30;94.69;100563.13;5031711;28;20463;-50
2023/06/25 03:07:57;;;;;;;0.60;0.50;;;;;;;16.03;96.21;100566.25;5031433;28;20468;-50
2023/06/25 03:10:26;;;;;;;0.50;0.20;;;;;;;16.13;96.27;100560.38;5031840;28;20479;-50
2023/06/25 03:12:53;;;;;;;0.50;0.20;;;;;;;16.14;95.49;100559.44;5031366;28;20509;-50
2023/06/25 03:15:20;;;;;;;0.50;0.20;;;;;;;16.30;94.70;100556.91;5031729;28;20475;-51
2023/06/25 03:17:47;;;;;;;0.50;0.20;;;;;;;16.36;94.30;100553.94;5031151;28;20467;-50
2023/06/25 03:20:13;;;;;;;0.50;0.20;;;;;;;16.24;94.34;100558.06;5031442;28;20519;-50
2023/06/25 03:22:40;;;;;;;0.50;0.20;;;;;;;16.18;95.43;100560.19;5031385;28;20578;-50
2023/06/25 03:25:07;;;;;;;0.50;0.20;;;;;;;16.41;94.23;100545.66;5031183;28;20936;-50
2023/06/25 03:27:34;;;;;;;0.50;0.20;;;;;;;16.25;95.05;100551.75;5031624;28;20463;-50
2023/06/25 03:30:02;;;;;;;0.50;0.20;;;;;;;16.24;95.10;100547.34;5031873;28;20582;-50
2023/06/25 03:32:29;;;;;;;0.50;0.20;;;;;;;16.35;94.49;100549.50;5031671;28;20466;-48
2023/06/25 03:34:55;;;;;;;0.50;0.20;;;;;;;16.25;95.02;100553.56;5031498;28;20471;-49
2023/06/25 03:37:23;;;;;;;0.50;0.20;;;;;;;16.15;95.38;100558.50;5031478;28;20463;-48
2023/06/25 03:39:49;;;;;;;0.40;0.20;;;;;;;16.30;94.72;100549.72;5033193;28;20553;-49
2023/06/25 03:42:16;;;;;;;0.50;0.20;;;;;;;16.26;94.67;100556.19;5035037;28;20555;-49
2023/06/25 03:44:48;;;;;;;0.47;0.20;;;;;;;16.05;95.42;100554.53;5034681;28;20473;-48
2023/06/25 03:47:15;;;;;;;0.50;0.20;;;;;;;16.06;96.11;100552.72;5034917;28;20499;-50
2023/06/25 03:49:42;;;;;;;0.50;0.20;;;;;;;16.08;96.22;100551.69;5034566;28;20501;-49
2023/06/25 03:52:09;;;;;;;0.60;0.60;;;;;;;16.21;96.11;100549.31;5034803;28;20908;-50
2023/06/25 03:54:35;;;;;;;0.40;0.20;;;;;;;16.08;96.86;100548.16;5034807;28;20467;-48
2023/06/25 03:57:02;;;;;;;0.50;0.20;;;;;;;16.10;96.60;100546.25;5034618;28;20464;-48
2023/06/25 03:59:29;;;;;;;0.50;0.20;;;;;;;16.25;95.73;100550.88;5034947;28;20494;-50
2023/06/25 04:01:55;;;;;;;0.43;0.20;;;;;;;16.26;95.69;100553.50;5034450;28;20471;-49
2023/06/25 04:04:22;;;;;;;0.50;0.20;;;;;;;16.37;95.62;100552.97;5034599;28;21026;-49
2023/06/25 04:06:48;;;;;;;0.50;0.20;;;;;;;16.41;95.52;100546.53;5034701;28;20546;-48
2023/06/25 04:09:15;;;;;;;0.40;0.20;;;;;;;16.52;95.17;100551.38;5034529;28;20471;-49
2023/06/25 04:11:41;;;;;;;0.50;0.20;;;;;;;16.61;95.27;100552.75;5034334;28;20536;-48
2023/06/25 04:14:08;;;;;;;0.40;0.20;;;;;;;16.64;94.65;100545.41;5066163;28;20470;-49
2023/06/25 04:16:36;;;;;;;0.50;0.20;;;;;;;16.74;94.63;100546.72;5034360;28;20562;-48
2023/06/25 04:19:02;;;;;;;0.50;0.20;;;;;;;16.55;94.97;100548.53;5034258;28;20514;-50
2023/06/25 04:21:29;;;;;;;0.50;0.20;;;;;;;16.38;95.92;100540.44;5034706;28;20460;-49
2023/06/25 04:23:55;;;;;;;1.03;1.03;;;;;;;16.64;95.54;100537.34;5033865;28;20491;-49
2023/06/25 04:26:22;;;;;;;0.50;0.20;;;;;;;16.71;95.76;100530.75;5034050;28;20836;-49
2023/06/25 04:28:48;;;;;;;0.50;0.20;;;;;;;16.95;95.50;100536.69;5033835;28;20471;-49
2023/06/25 04:31:15;;;;;;;0.47;0.20;;;;;;;17.25;95.26;100534.25;5034239;28;20863;-49
2023/06/25 04:33:41;;;;;;;0.50;0.20;;;;;;;17.92;92.20;100538.72;5033869;28;20539;-49
2023/06/25 04:36:10;;;;;;;0.50;0.20;;;;;;;18.83;88.07;100538.06;5033906;28;20476;-49
2023/06/25 04:38:37;;;;;;;0.50;0.20;;;;;;;19.48;85.52;100540.47;5030469;28;20502;-49
2023/06/25 04:41:04;;;;;;;0.50;0.20;;;;;;;19.52;85.19;100545.56;5034051;28;20491;-48
2023/06/25 04:43:30;;;;;;;0.50;0.20;;;;;;;20.05;82.85;100554.88;5033707;28;20569;-49
2023/06/25 04:45:57;;;;;;;0.50;0.20;;;;;;;20.28;80.60;100556.06;5033799;28;20489;-49
2023/06/25 04:48:23;;;;;;;0.50;0.20;;;;;;;20.72;79.91;100540.69;5033871;28;20486;-49
2023/06/25 04:50:50;;;;;;;0.50;0.20;;;;;;;21.00;77.64;100548.66;5032295;28;20483;-50
2023/06/25 04:53:16;;;;;;;0.50;0.20;;;;;;;21.07;78.33;100539.16;5033794;28;20465;-48
2023/06/25 04:55:43;;;;;;;0.50;0.20;;;;;;;21.21;76.71;100546.31;5033669;28;20470;-50
2023/06/25 04:58:09;;;;;;;0.50;0.20;;;;;;;21.61;75.62;100557.09;5033643;28;20918;-48
2023/06/25 05:00:36;;;;;;;0.50;0.20;;;;;;;21.61;74.79;100552.56;5033265;28;20487;-48
2023/06/25 05:03:02;;;;;;;0.50;0.20;;;;;;;21.82;74.38;100558.31;5033498;28;21004;-48
2023/06/25 05:05:29;;;;;;;0.50;0.20;;;;;;;21.97;73.72;100561.75;5033181;28;20889;-49
2023/06/25 05:07:55;;;;;;;0.50;0.20;;;;;;;22.02;73.25;100557.75;5038836;28;20970;-49
2023/06/25 05:10:22;;;;;;;0.50;0.30;;;;;;;22.30;72.03;100567.47;5037892;28;20482;-49
2023/06/25 05:12:49;;;;;;;0.50;0.30;;;;;;;22.57;70.66;100561.88;5033040;28;20525;-49
2023/06/25 05:15:16;;;;;;;0.50;0.20;;;;;;;22.83;69.25;100557.25;5033268;28;21020;-49
2023/06/25 05:17:43;;;;;;;0.50;0.20;;;;;;;22.99;68.64;100556.94;5033256;28;20462;-49
2023/06/25 05:20:10;;;;;;;0.50;0.23;;;;;;;23.25;67.76;100554.97;5037776;28;20470;-49
2023/06/25 05:22:36;;;;;;;0.50;0.20;;;;;;;22.96;68.52;100557.19;5037283;28;20546;-49
2023/06/25 05:25:03;;;;;;;0.50;0.20;;;;;;;22.86;68.90;100551.59;5033013;28;21007;-48
2023/06/25 05:27:29;;;;;;;0.50;0.20;;;;;;;23.16;68.14;100556.53;5034198;28;20533;-49
2023/06/25 05:29:56;;;;;;;0.50;0.20;;;;;;;23.23;68.04;100559.63;5050335;28;21032;-48
2023/06/25 05:32:22;;;;;;;0.50;0.20;;;;;;;23.31;67.47;100565.34;5034812;28;20510;-48
2023/06/25 05:34:49;;;;;;;0.50;0.30;;;;;;;23.23;67.44;100555.06;5032744;28;20468;-49
2023/06/25 05:37:15;;;;;;;0.50;0.20;;;;;;;22.94;68.80;100560.03;5033988;28;20494;-49
2023/06/25 05:39:42;;;;;;;0.50;0.30;;;;;;;23.58;67.54;100556.94;5038785;28;20528;-49
2023/06/25 05:42:08;;;;;;;0.50;0.20;;;;;;;23.34;67.91;100557.84;5034243;28;20471;-48
2023/06/25 05:44:35;;;;;;;0.50;0.20;;;;;;;23.41;67.79;100555.50;5032438;28;21034;-49
2023/06/25 05:47:01;;;;;;;0.50;0.30;;;;;;;23.32;67.35;100559.81;5032597;28;21032;-48
2023/06/25 05:49:28;;;;;;;0.50;0.30;;;;;;;23.24;68.02;100559.50;5032595;28;20510;-50
2023/06/25 05:51:54;;;;;;;0.50;0.20;;;;;;;24.00;65.95;100552.66;5032441;28;20521;-49
2023/06/25 05:54:21;;;;;;;0.50;0.20;;;;;;;24.08;65.09;100562.91;5032034;28;20890;-48
2023/06/25 05:56:47;;;;;;;0.50;0.20;;;;;;;23.62;66.99;100555.72;5032239;28;20460;-49
2023/06/25 05:59:14;;;;;;;0.50;0.20;;;;;;;23.78;67.13;100553.50;5063738;28;20909;-48
2023/06/25 06:01:40;;;;;;;0.50;0.30;;;;;;;23.79;66.45;100552.53;5031987;28;21078;-49
2023/06/25 06:04:07;;;;;;;0.50;0.30;;;;;;;23.96;66.34;100553.88;5032320;28;20530;-48
2023/06/25 06:06:33;;;;;;;0.50;0.30;;;;;;;24.44;64.32;100557.22;5032113;28;20463;-49
2023/06/25 06:09:00;;;;;;;0.50;0.20;;;;;;;24.49;63.92;100559.56;5031835;28;20479;-49
2023/06/25 06:11:27;;;;;;;0.50;0.20;;;;;;;24.39;64.48;100550.44;5032178;28;20490;-48
2023/06/25 06:13:53;;;;;;;0.50;0.20;;;;;;;24.02;66.04;100561.56;5032316;28;20509;-49
2023/06/25 06:16:23;;;;;;;0.50;0.20;;;;;;;24.13;65.51;100557.97;5032213;28;20522;-49
2023/06/25 06:18:49;;;;;;;1.27;1.17;;;;;;;24.45;64.53;100555.38;5031729;28;20471;-48
2023/06/25 06:21:16;;;;;;;0.50;0.20;;;;;;;24.66;64.75;100559.03;5031896;28;20487;-48
2023/06/25 06:23:42;;;;;;;0.50;0.30;;;;;;;24.29;66.25;100561.19;5031715;28;20501;-48
2023/06/25 06:26:09;;;;;;;0.50;0.20;;;;;;;24.41;66.11;100562.06;5031718;28;20912;-49
2023/06/25 06:28:35;;;;;;;3.80;2.10;;;;;;;24.65;66.17;100551.00;5031398;28;20832;-49
2023/06/25 06:31:02;;;;;;;0.50;0.20;;;;;;;25.25;63.19;100544.13;5031464;28;20523;-49
2023/06/25 06:33:31;;;;;;;0.50;0.30;;;;;;;25.08;64.69;100549.16;5031560;28;20464;-48
2023/06/25 06:35:59;;;;;;;0.50;0.20;;;;;;;24.82;63.85;100545.03;5031659;28;20533;-49
2023/06/25 06:38:25;;;;;;;0.50;0.20;;;;;;;25.47;62.36;100548.56;5030500;28;20463;-48
2023/06/25 06:40:52;;;;;;;0.50;0.20;;;;;;;25.49;61.42;100552.03;5031716;28;20491;-48
2023/06/25 06:43:18;;;;;;;0.50;0.30;;;;;;;25.21;63.18;100548.97;5031218;28;20961;-48
2023/06/25 06:45:45;;;;;;;0.50;0.30;;;;;;;25.59;62.09;100548.38;5031840;28;20466;-48
2023/06/25 06:48:11;;;;;;;0.50;0.30;;;;;;;26.24;58.47;100547.16;5031334;28;20968;-49
2023/06/25 06:50:38;;;;;;;0.50;0.30;;;;;;;26.11;58.55;100546.53;5031549;28;20483;-49
2023/06/25 06:53:05;;;;;;;0.50;0.20;;;;;;;25.88;60.70;100543.13;5031735;28;20499;-48
2023/06/25 06:55:32;;;;;;;0.70;0.60;;;;;;;26.38;58.24;100545.94;5031949;28;20559;-49
2023/06/25 06:57:59;;;;;;;0.50;0.30;;;;;;;25.85;59.47;100539.81;5031700;28;20805;-48
2023/06/25 07:00:26;;;;;;;0.50;0.30;;;;;;;26.18;59.69;100536.81;5031766;28;20482;-47
2023/06/25 07:02:57;;;;;;;0.50;0.30;;;;;;;26.17;60.00;100537.78;5031684;28;20463;-49
2023/06/25 07:05:23;;;;;;;0.50;0.30;;;;;;;26.57;57.14;100551.44;5032239;28;20518;-49
2023/06/25 07:07:50;;;;;;;0.60;0.47;;;;;;;26.71;57.53;100552.91;5031611;28;20471;-48
2023/06/25 07:10:17;;;;;;;0.50;0.30;;;;;;;26.39;57.28;100544.06;5031505;28;20522;-48
2023/06/25 07:12:43;;;;;;;0.50;0.30;;;;;;;26.75;57.06;100545.31;5031285;28;20460;-48
2023/06/25 07:15:10;;;;;;;0.50;0.30;;;;;;;26.10;60.04;100542.09;5033891;28;20534;-49
2023/06/25 07:17:37;;;;;;;0.50;0.20;;;;;;;26.73;59.29;100547.31;5034950;28;20889;-49
2023/06/25 07:20:03;;;;;;;0.50;0.30;;;;;;;26.26;60.32;100541.56;5035392;28;20889;-48
2023/06/25 07:22:32;;;;;;;1.07;0.97;;;;;;;26.60;59.14;100550.31;5034167;28;20502;-49
2023/06/25 07:25:00;;;;;;;0.50;0.23;;;;;;;26.64;59.04;100545.44;5032666;28;20491;-49
2023/06/25 07:27:26;;;;;;;0.50;0.30;;;;;;;26.62;58.96;100542.84;5032372;28;20471;-49
2023/06/25 07:29:53;;;;;;;0.50;0.30;;;;;;;26.80;57.53;100540.28;5035002;28;20527;-49
2023/06/25 07:32:19;;;;;;;0.50;0.30;;;;;;;26.86;57.43;100540.59;5039326;28;20972;-49
2023/06/25 07:34:46;;;;;;;0.50;0.30;;;;;;;26.98;56.88;100544.03;5035081;28;20452;-50
2023/06/25 07:37:12;;;;;;;0.70;0.70;;;;;;;27.27;56.51;100544.03;5030001;28;20971;-50
2023/06/25 07:39:39;;;;;;;0.50;0.27;;;;;;;27.30;56.74;100540.19;5034212;28;20491;-51
2023/06/25 07:42:06;;;;;;;0.50;0.30;;;;;;;27.27;54.35;100541.31;5034656;28;20529;-51
2023/06/25 07:44:32;;;;;;;0.50;0.30;;;;;;;27.34;53.90;100536.16;5034173;28;20498;-50
2023/06/25 07:47:18;;;;;;;0.50;0.30;;;;;;;27.86;53.85;100536.66;5034312;28;20463;-51
2023/06/25 07:49:45;;;;;;;0.50;0.30;;;;;;;27.90;52.05;100528.00;5034518;28;20454;-51
2023/06/25 07:52:11;;;;;;;0.50;0.30;;;;;;;27.65;50.75;100534.09;5034647;28;20936;-51
2023/06/25 07:54:39;;;;;;;0.50;0.30;;;;;;;27.82;50.18;100532.47;5034435;28;20880;-50
2023/06/25 07:57:06;;;;;;;0.50;0.30;;;;;;;27.68;51.07;100533.81;5034629;28;20550;-51
2023/06/25 07:59:32;;;;;;;0.50;0.30;;;;;;;28.08;51.20;100528.06;5034449;28;20574;-50
2023/06/25 08:02:16;;;;;;;0.50;0.30;;;;;;;27.72;51.50;100516.13;5034555;28;20463;-50
2023/06/25 08:04:42;;;;;;;0.63;0.50;;;;;;;28.49;49.79;100514.91;5034188;28;20470;-51
2023/06/25 08:07:09;;;;;;;0.50;0.30;;;;;;;27.89;49.62;100509.00;5034361;28;20853;-50
2023/06/25 08:09:35;;;;;;;0.50;0.23;;;;;;;28.33;49.53;100505.50;5034206;28;20479;-50
2023/06/25 08:12:02;;;;;;;0.50;0.30;;;;;;;28.21;48.78;100503.94;5034404;28;20464;-50
2023/06/25 08:14:29;;;;;;;0.50;0.30;;;;;;;28.38;48.23;100505.06;5034309;28;20470;-51
2023/06/25 08:16:55;;;;;;;0.50;0.30;;;;;;;28.71;45.53;100505.41;5033920;28;20511;-50
2023/06/25 08:19:22;;;;;;;0.50;0.30;;;;;;;28.77;44.02;100502.03;5034021;28;20486;-51
2023/06/25 08:21:48;;;;;;;0.50;0.30;;;;;;;28.75;43.50;100507.66;5034111;28;20920;-52
2023/06/25 08:24:15;;;;;;;0.50;0.30;;;;;;;29.10;43.46;100503.25;5033924;28;20492;-51
2023/06/25 08:26:41;;;;;;;0.50;0.30;;;;;;;29.02;41.66;100506.75;5033541;28;20459;-51
2023/06/25 08:29:07;;;;;;;0.50;0.30;;;;;;;29.11;41.75;100497.63;5034064;28;20558;-51
2023/06/25 08:31:34;;;;;;;0.50;0.30;;;;;;;28.82;41.55;100499.72;5033676;28;20533;-51
2023/06/25 08:34:01;;;;;;;0.50;0.30;;;;;;;28.98;40.62;100508.09;5033815;28;20467;-51
2023/06/25 08:36:27;;;;;;;0.50;0.30;;;;;;;28.69;40.79;100499.25;5033568;28;20447;-50
2023/06/25 08:38:54;;;;;;;0.50;0.30;;;;;;;29.68;40.76;100500.78;5065243;28;20450;-51
2023/06/25 08:41:20;;;;;;;0.50;0.30;;;;;;;29.46;40.09;100506.78;5034867;28;20487;-51
2023/06/25 08:43:47;;;;;;;0.50;0.30;;;;;;;29.73;39.49;100495.69;5034751;28;20467;-52
2023/06/25 08:46:14;;;;;;;0.50;0.30;;;;;;;29.76;39.36;100511.81;5033607;28;20613;-51
2023/06/25 08:48:42;;;;;;;0.50;0.30;;;;;;;30.08;38.09;100502.06;5033575;28;20495;-52
2023/06/25 08:51:16;;;;;;;1.50;1.47;;;;;;;30.00;38.19;100496.50;5034056;28;20459;-52
2023/06/25 08:53:44;;;;;;;0.50;0.30;;;;;;;30.18;38.79;100489.09;5033147;28;20442;-52
2023/06/25 08:56:14;;;;;;;0.50;0.30;;;;;;;30.21;38.40;100483.28;5034655;28;20856;-52
2023/06/25 08:58:41;;;;;;;0.50;0.30;;;;;;;30.22;38.60;100487.72;5034679;28;20529;-51
2023/06/25 09:01:07;;;;;;;0.50;0.30;;;;;;;29.93;39.31;100482.59;5033668;28;21008;-51
2023/06/25 09:03:34;;;;;;;0.53;0.53;;;;;;;29.50;38.97;100486.31;5034190;28;20464;-51
2023/06/25 09:06:00;;;;;;;0.50;0.30;;;;;;;29.22;40.20;100479.22;5033712;28;20474;-51
2023/06/25 09:08:28;;;;;;;0.50;0.30;;;;;;;29.96;39.84;100479.53;5033921;28;20506;-51
2023/06/25 09:10:56;;;;;;;0.50;0.30;;;;;;;29.11;38.53;100478.44;5034376;28;20991;-51
2023/06/25 09:13:27;;;;;;;0.50;0.30;;;;;;;29.54;38.79;100482.22;5034719;28;20450;-52
2023/06/25 09:16:03;;;;;;;0.50;0.30;;;;;;;29.66;38.10;100483.66;5034501;28;20435;-52
2023/06/25 09:18:30;;;;;;;0.50;0.30;;;;;;;29.12;38.14;100476.56;5032796;28;20434;-51
2023/06/25 09:21:08;;;;;;;0.50;0.30;;;;;;;30.08;37.07;100467.28;5030641;28;20517;-52
2023/06/25 09:23:38;;;;;;;0.50;0.30;;;;;;;30.34;36.32;100466.34;5030167;28;20935;-52
2023/06/25 09:26:07;;;;;;;0.50;0.30;;;;;;;30.17;36.36;100461.84;5040150;28;20440;-52
2023/06/25 09:28:49;;;;;;;0.50;0.30;;;;;;;29.73;36.63;100459.19;5033691;28;21000;-51
2023/06/25 09:31:16;;;;;;;0.50;0.30;;;;;;;29.59;37.28;100460.66;5025835;28;20493;-49
2023/06/25 09:33:50;;;;;;;0.50;0.30;;;;;;;29.19;37.01;100447.50;5032659;28;20467;-50
2023/06/25 09:36:17;;;;;;;0.50;0.30;;;;;;;29.66;37.38;100449.91;5031688;28;20646;-49
2023/06/25 09:39:05;;;;;;;0.50;0.30;;;;;;;29.87;36.57;100454.97;5027867;28;20536;-50
2023/06/25 09:41:37;;;;;;;0.70;0.40;;;;;;;30.26;36.71;100447.97;5032273;28;20473;-51
2023/06/25 09:44:05;;;;;;;0.50;0.30;;;;;;;29.74;36.55;100447.19;5032480;28;20447;-49
2023/06/25 09:46:34;;;;;;;0.50;0.30;;;;;;;29.63;36.23;100447.50;5032078;28;20961;-50
2023/06/25 09:49:02;;;;;;;0.50;0.30;;;;;;;29.96;36.56;100448.50;5025480;28;20585;-50
2023/06/25 09:51:47;;;;;;;0.50;0.30;;;;;;;29.92;35.69;100442.50;5032096;28;20826;-50
2023/06/25 09:54:18;;;;;;;0.50;0.30;;;;;;;30.08;36.09;100436.25;5032465;28;20860;-50
2023/06/25 09:56:48;;;;;;;0.50;0.30;;;;;;;30.54;35.23;100432.06;5032855;28;20789;-49
2023/06/25 09:59:15;;;;;;;0.50;0.30;;;;;;;30.97;35.22;100435.56;5032470;28;20438;-53
2023/06/25 10:01:42;;;;;;;0.50;0.30;;;;;;;31.12;34.93;100433.84;5032208;28;20969;-50
2023/06/25 10:04:09;;;;;;;0.70;0.70;;;;;;;31.70;34.52;100435.47;5034207;28;20840;-51
2023/06/25 10:06:37;;;;;;;0.50;0.30;;;;;;;31.26;34.23;100429.59;5032125;28;20538;-50
2023/06/25 10:09:04;;;;;;;0.50;0.30;;;;;;;31.20;34.45;100422.03;5030797;28;20524;-51
2023/06/25 10:11:31;;;;;;;0.50;0.30;;;;;;;31.04;34.97;100419.25;5031993;28;20472;-50
2023/06/25 10:13:59;;;;;;;0.50;0.30;;;;;;;31.16;35.03;100424.22;5028649;28;20952;-51
2023/06/25 10:16:31;;;;;;;0.50;0.30;;;;;;;31.23;34.87;100416.16;5032294;28;20438;-51
2023/06/25 10:19:05;;;;;;;0.50;0.30;;;;;;;31.05;34.85;100419.09;5030601;28;20473;-50
2023/06/25 10:21:32;;;;;;;0.50;0.30;;;;;;;30.70;35.29;100416.69;5032169;28;20448;-51
2023/06/25 10:24:01;;;;;;;0.50;0.20;;;;;;;30.41;34.84;100414.38;5031862;28;20536;-50
2023/06/25 10:26:34;;;;;;;0.50;0.30;;;;;;;30.90;34.94;100410.69;5032128;28;20534;-50
2023/06/25 10:29:06;;;;;;;0.50;0.30;;;;;;;31.01;34.29;100406.75;5031521;28;20504;-50
2023/06/25 10:31:42;;;;;;;0.50;0.30;;;;;;;30.43;33.80;100402.25;5031492;28;20927;-51
2023/06/25 10:34:10;;;;;;;1.43;0.70;;;;;;;30.70;34.06;100400.22;5031651;28;20442;-50
2023/06/25 10:36:47;;;;;;;0.50;0.30;;;;;;;30.95;34.19;100401.91;5031397;28;20488;-50
2023/06/25 10:39:14;;;;;;;0.50;0.30;;;;;;;30.91;34.28;100395.94;5031879;28;20472;-50
2023/06/25 10:41:47;;;;;;;0.77;0.77;;;;;;;31.56;33.83;100399.63;5031850;28;20463;-50
2023/06/25 10:44:13;;;;;;;0.50;0.30;;;;;;;31.29;32.97;100395.41;5031548;28;20958;-50
2023/06/25 10:46:40;;;;;;;0.50;0.30;;;;;;;30.04;34.48;100393.72;5031186;28;20457;-51
2023/06/25 10:49:06;;;;;;;0.50;0.30;;;;;;;30.87;33.48;100386.31;5034464;28;20449;-50
2023/06/25 10:51:33;;;;;;;0.50;0.30;;;;;;;30.30;33.68;100388.16;5035568;28;20442;-50
2023/06/25 10:53:59;;;;;;;0.50;0.30;;;;;;;30.77;33.10;100391.13;5035885;28;20441;-50
2023/06/25 10:56:26;;;;;;;0.50;0.30;;;;;;;30.73;34.00;100384.28;5035913;28;20433;-51
2023/06/25 10:58:57;;;;;;;0.50;0.30;;;;;;;30.69;33.76;100376.53;5036180;28;20515;-51
2023/06/25 11:01:24;;;;;;;0.50;0.30;;;;;;;31.39;32.82;100369.44;5035888;28;20497;-52
2023/06/25 11:03:51;;;;;;;0.50;0.30;;;;;;;31.40;32.52;100376.66;5035777;28;20495;-51
2023/06/25 11:06:18;;;;;;;0.50;0.30;;;;;;;31.38;32.52;100366.84;5035702;28;20495;-50
2023/06/25 11:08:45;;;;;;;1.23;0.80;;;;;;;31.43;32.00;100370.78;5035666;28;20438;-51
2023/06/25 11:11:11;;;;;;;0.50;0.30;;;;;;;31.23;32.50;100364.81;5035520;28;20491;-51
2023/06/25 11:13:38;;;;;;;0.50;0.30;;;;;;;31.81;31.76;100369.13;5035509;28;20452;-51
2023/06/25 11:16:05;;;;;;;0.50;0.30;;;;;;;31.96;32.18;100360.97;5035774;28;20433;-50
2023/06/25 11:18:32;;;;;;;0.50;0.30;;;;;;;31.93;31.93;100355.81;5035383;28;20546;-52
2023/06/25 11:20:58;;;;;;;0.50;0.30;;;;;;;31.80;32.77;100348.16;5035544;28;20465;-50
2023/06/25 11:23:26;;;;;;;0.50;0.30;;;;;;;32.27;31.48;100351.84;5035603;28;20442;-52
2023/06/25 11:25:53;;;;;;;0.50;0.30;;;;;;;31.52;32.24;100350.50;5035016;28;20606;-51